Charter Quote
Worldwide +1-877-727-2538 Call
Select Language Lang
SAFETY RELIABILITY EXPERIENCE

Private Jet Charter Services - Xiangfan Airport (ZHXF)

Paramount Business Jets offers private jet charter flights and luxury airliner charters to and from Xiangfan Airport.

AIRPORT INFORMATION
ICAOZHXF
IATAXFN
LOCATIONXiangfan, China
FACILITY TYPEAIRPORT

At Paramount Business Jets you can hire chartered private jets to and from Xiangfan Airport with as little as 4 hours of notice. All flights booked via Paramount Business Jets are operated by certified direct air carriers that meet and exceed the FAA part 135 and 121 protocol or a foreign equivalent safety authority. Furthermore, Paramount Business Jets subscribes to ARGUS for their third party safety checks of operators, aircraft, and crews prior each and every flight to and from Xiangfan Airport and worldwide.

  • Quote a trip using Xiangfan Airport or call us 24/7 - 365 days a year at +1-877-727-2538.
Questions? Call +1-877-727-2538

METAR Weather Data at Xiangfan Airport, ZHXF, XFN

STATIONZHXF
OBSERVEDSun Dec 25, 02:00 UTC
NOWMon Oct 21, 19:59 UTC
AGE24737:59 hr ago
WINDN at 11 mph
VISIBILITY1.8 miles
CONDITIONSlight rain & mist
CLOUDSscattered clouds
METARZHXF 250200Z 01005MPS 1100 R01/P2000N -RA BR FEW007 SCT017 OVC04/ 0 03/03 Q1027 NOSIG

Call us on +1-877-727-2538 (24 Hours) to Hire a Private Jet or Get a Quick Quote.

Find Airports Near any Location

Processing
...